Flight Track Log - Related Links

Times and Time Zones

All times are in EDT time to prevent confusion due to time zone crossing. See the RPA3253 flight status page for this flight to view local times or setup timezone preferences in your user account.

Time Position Orientation Groundspeed Altitude Reporting Facility
EDT Latitude Longitude Course Direction KTS MPH feet Rate Location/Type
Sat 07:07:11 PM 43.6339 -70.4781 216° Southwest 227 261 3,800  Level Boston Center
Sat 07:08:12 PM 43.5581 -70.5433 212° Southwest 240 276 7,100 2,607 Climbing Boston Center
Sat 07:09:13 PM 43.4961 -70.5825 205° Southwest 270 311 9,100 1,966 Climbing Boston Center
Sat 07:10:11 PM 43.4111 -70.6194 198° South 291 335 11,000 1,916 Climbing Boston Center
Sat 07:11:00 PM 43.3003 -70.5245 232° Southwest  Level FlightAware Approximate
Sat 07:11:12 PM 43.3367 -70.6503 197° South 306 352 12,900  Level Boston Center
Sat 07:12:00 PM 43.2232 -70.6268 216° Southwest  Level FlightAware Approximate
Sat 07:12:24 PM 43.2436 -70.6872 196° South 311 358 15,000  Level Boston Center
Sat 07:13:25 PM 43.1442 -70.7383 201° Southwest 319 367 17,000 1,576 Climbing Boston Center
Sat 07:14:22 PM 43.0636 -70.7917 206° Southwest 330 380 18,100 1,231 Climbing Boston Center
Sat 07:15:22 PM 42.9811 -70.8536 209° Southwest 336 387 19,400 1,388 Climbing Boston Center
Sat 07:16:23 PM 42.8986 -70.9125 208° Southwest 341 392 20,900 1,289 Climbing Boston Center
Sat 07:17:23 PM 42.8139 -70.9656 205° Southwest 341 392 22,000 992 Climbing Boston Center
Sat 07:18:24 PM 42.7394 -71.0039 201° Southwest 341 392 22,900 1,041 Climbing Boston Center
Sat 07:19:24 PM 42.6275 -71.0575 199° South 352 405 24,100 1,059 Climbing Boston Center
Sat 07:20:23 PM 42.5344 -71.1072 201° Southwest 359 413 25,000 1,059 Climbing Boston Center
Sat 07:21:23 PM 42.4478 -71.1881 215° Southwest 367 422 26,200 1,041 Climbing Boston Center
Sat 07:22:24 PM 42.3672 -71.2767 219° Southwest 372 428 27,100 1,008 Climbing Boston Center
Sat 07:23:22 PM 42.2869 -71.3625 218° Southwest 377 434 28,200 1,059 Climbing Boston Center
Sat 07:24:23 PM 42.2003 -71.4536 218° Southwest 389 448 29,200 992 Climbing Boston Center
Sat 07:25:23 PM 42.1133 -71.5417 217° Southwest 389 448 30,200 779 Climbing Boston Center
Sat 07:26:34 PM 42.0328 -71.6183 215° Southwest 394 453 30,900 824 Climbing Boston Center
Sat 07:27:34 PM 41.9272 -71.7314 219° Southwest 404 465 32,000 934 Climbing Boston Center
Sat 07:28:36 PM 41.8381 -71.8242 218° Southwest 409 471 32,800 885 Climbing Boston Center
Sat 07:29:36 PM 41.7489 -71.9142 217° Southwest 409 471 33,800 595 Climbing Boston Center
Sat 07:30:37 PM 41.6597 -72.0067 218° Southwest 409 471 34,000 92 Climbing Boston Center
Sat 07:31:47 PM 41.5703 -72.0961 217° Southwest 415 478 34,000  Level Boston Center
Sat 07:32:47 PM 41.4644 -72.2047 218° Southwest 415 478 34,000  Level Boston Center
Sat 07:33:49 PM 41.3644 -72.3044 217° Southwest 415 478 34,000  Level Boston Center
Sat 07:34:47 PM 41.2750 -72.3958 218° Southwest 409 471 34,000  Level Boston Center
Sat 07:35:48 PM 41.1917 -72.4814 218° Southwest 422 486 34,000  Level Boston Center
Sat 07:36:49 PM 41.0956 -72.5833 219° Southwest 417 480 34,000  Level Boston Center
Sat 07:37:47 PM 41.0058 -72.6711 216° Southwest 412 474 34,000  Level Boston Center
Sat 07:38:49 PM 40.9183 -72.7586 217° Southwest 412 474 34,000  Level Boston Center
Sat 07:39:48 PM 40.8325 -72.8461 218° Southwest 412 474 34,000  Level Boston Center
Sat 07:40:46 PM 40.7447 -72.9358 218° Southwest 412 474 34,000  Level Boston Center
Sat 07:41:46 PM 40.6567 -73.0119 213° Southwest 401 461 34,000  Level Boston Center
Sat 07:43:25 PM 40.5300 -73.1464 219° Southwest 391 450 34,000  Level Washington Center
Sat 07:44:24 PM 40.4422 -73.2314 216° Southwest 391 450 34,000  Level Washington Center
Sat 07:45:24 PM 40.3522 -73.3186 216° Southwest 397 457 34,000  Level Washington Center
Sat 07:46:24 PM 40.2642 -73.4031 216° Southwest 403 464 34,000  Level Washington Center
Sat 07:47:25 PM 40.1764 -73.4928 218° Southwest 403 464 34,000  Level Washington Center
Sat 07:48:23 PM 40.0778 -73.5825 215° Southwest 403 464 34,000  Level Washington Center
Sat 07:49:24 PM 39.9875 -73.6661 215° Southwest 398 458 34,000  Level Washington Center
Sat 07:50:23 PM 39.8994 -73.7525 217° Southwest 403 464 34,000  Level Washington Center
Sat 07:51:24 PM 39.8111 -73.8358 216° Southwest 403 464 34,000  Level Washington Center
Sat 07:52:23 PM 39.7228 -73.9217 217° Southwest 403 464 34,000 -252 Level Washington Center
Sat 07:53:23 PM 39.6361 -74.0017 215° Southwest 403 464 33,500 -738 Descending Washington Center
Sat 07:54:25 PM 39.5478 -74.0897 218° Southwest 403 464 32,500 -750 Descending Washington Center
Sat 07:55:23 PM 39.4592 -74.1722 216° Southwest 403 464 32,000 -254 Descending Washington Center
Sat 07:56:23 PM 39.3725 -74.2547 216° Southwest 403 464 32,000  Level Washington Center
Sat 07:57:24 PM 39.2839 -74.3367 216° Southwest 403 464 32,000  Level Washington Center
Sat 07:58:25 PM 39.1950 -74.4214 216° Southwest 403 464 32,000  Level Washington Center
Sat 07:59:25 PM 39.1042 -74.5056 216° Southwest 403 464 32,000  Level Washington Center
Sat 08:00:23 PM 39.0256 -74.5817 217° Southwest 403 464 32,000  Level Washington Center
Sat 08:01:24 PM 38.9389 -74.6631 216° Southwest 403 464 32,000  Level Washington Center
Sat 08:02:24 PM 38.8497 -74.7467 216° Southwest 403 464 32,000  Level Washington Center
Sat 08:03:25 PM 38.7586 -74.8275 215° Southwest 403 464 32,000  Level Washington Center
Sat 08:04:23 PM 38.6694 -74.9108 216° Southwest 403 464 32,000  Level Washington Center
Sat 08:05:24 PM 38.5803 -74.9914 215° Southwest 403 464 32,000  Level Washington Center
Sat 08:06:23 PM 38.4911 -75.0744 216° Southwest 403 464 32,000  Level Washington Center
Sat 08:07:23 PM 38.3975 -75.1414 209° Southwest 403 464 32,000  Level Washington Center
Sat 08:08:23 PM 38.3081 -75.2214 215° Southwest 393 452 32,000  Level Washington Center
Sat 08:09:24 PM 38.2186 -75.3064 217° Southwest 399 459 32,000  Level Washington Center
Sat 08:10:24 PM 38.1269 -75.3833 213° Southwest 404 465 32,000  Level Washington Center
Sat 08:11:26 PM 38.0311 -75.4572 211° Southwest 404 465 32,000  Level Washington Center
Sat 08:12:24 PM 37.9394 -75.5339 213° Southwest 404 465 32,000  Level Washington Center
Sat 08:13:25 PM 37.8458 -75.6103 213° Southwest 404 465 32,000  Level Washington Center
Sat 08:14:23 PM 37.7561 -75.6836 213° Southwest 399 459 32,000  Level Washington Center
Sat 08:15:23 PM 37.6642 -75.7597 213° Southwest 399 459 32,000  Level Washington Center
Sat 08:16:23 PM 37.5703 -75.8356 213° Southwest 399 459 32,000  Level Washington Center
Sat 08:17:23 PM 37.4783 -75.9111 213° Southwest 394 453 32,000  Level Washington Center
Sat 08:18:24 PM 37.3861 -75.9864 213° Southwest 394 453 32,000  Level Washington Center
Sat 08:19:25 PM 37.2900 -76.0617 212° Southwest 394 453 32,000  Level Washington Center
Sat 08:20:23 PM 37.1936 -76.1419 214° Southwest 400 460 32,000  Level Washington Center
Sat 08:21:24 PM 37.0828 -76.2244 211° Southwest 410 472 32,000  Level Washington Center
Sat 08:22:23 PM 36.9864 -76.3017 213° Southwest 415 478 32,000  Level Washington Center
Sat 08:23:24 PM 36.8878 -76.3761 211° Southwest 415 478 32,000  Level Washington Center
Sat 08:24:25 PM 36.7831 -76.4347 204° Southwest 415 478 32,000  Level Washington Center
Sat 08:25:25 PM 36.6908 -76.4908 206° Southwest 415 478 32,000  Level Washington Center
Sat 08:26:25 PM 36.5842 -76.5464 203° Southwest 415 478 32,000 -151 Level Washington Center
Sat 08:27:24 PM 36.4689 -76.6069 203° Southwest 418 481 31,700 -756 Descending Washington Center
Sat 08:28:24 PM 36.3661 -76.6675 205° Southwest 418 481 30,500 -1,279 Descending Washington Center
Sat 08:29:26 PM 36.2756 -76.7539 218° Southwest 418 481 29,100 -1,311 Descending Washington Center
Sat 08:30:23 PM 36.1869 -76.8428 219° Southwest 418 481 27,900 -564 Descending Washington Center
Sat 08:31:23 PM 36.1028 -76.9236 218° Southwest 407 468 28,000 50 Climbing Washington Center
Sat 08:32:24 PM 36.0183 -77.0094 219° Southwest 396 456 28,000  Level Washington Center
Sat 08:33:25 PM 35.9317 -77.0928 218° Southwest 396 456 28,000  Level Washington Center
Sat 08:34:23 PM 35.8597 -77.1681 220° Southwest 396 456 28,000  Level Washington Center
Sat 08:35:24 PM 35.7731 -77.2508 218° Southwest 389 448 28,000  Level Washington Center
Sat 08:36:24 PM 35.6886 -77.3336 219° Southwest 395 455 28,000  Level Washington Center
Sat 08:37:25 PM 35.6039 -77.4161 218° Southwest 395 455 28,000  Level Washington Center
Sat 08:38:26 PM 35.5192 -77.4983 218° Southwest 400 460 28,000 -303 Level Washington Center
Sat 08:39:24 PM 35.4344 -77.5778 217° Southwest 400 460 27,400 -1,008 Descending Washington Center
Sat 08:40:25 PM 35.3494 -77.6597 218° Southwest 400 460 26,000 -1,400 Descending Washington Center
Sat 08:41:24 PM 35.2689 -77.7392 219° Southwest 390 449 24,600 -1,300 Descending Washington Center
Sat 08:42:25 PM 35.1881 -77.8158 218° Southwest 383 441 23,400 -1,240 Descending Washington Center
Sat 08:43:25 PM 35.1117 -77.8897 218° Southwest 373 429 22,100 -712 Descending Washington Center
Sat 08:44:23 PM 35.0350 -77.9639 218° Southwest 363 418 22,000 -50 Descending Washington Center
Sat 08:45:24 PM 34.9586 -78.0325 216° Southwest 356 410 22,000  Level Washington Center
Sat 08:46:24 PM 34.8819 -78.1061 218° Southwest 356 410 22,000  Level Washington Center
Sat 08:47:25 PM 34.8072 -78.1847 221° Southwest 356 410 22,000  Level Washington Center
Sat 08:48:25 PM 34.7306 -78.2581 218° Southwest 356 410 22,000  Level Washington Center
Sat 08:49:23 PM 34.6967 -78.3681 249° West 342 394 22,000  Level Washington Center
Sat 08:50:25 PM 34.6978 -78.4944 271° West 333 383 22,000  Level Washington Center
Sat 08:51:23 PM 34.6992 -78.6083 271° West 362 417 22,000 -254 Level Washington Center
Sat 08:52:23 PM 34.6961 -78.7344 268° West 367 422 21,500 -893 Descending Washington Center
Sat 08:53:24 PM 34.6986 -78.8658 271° West 372 428 20,200 -1,078 Descending Washington Center
Sat 08:55:10 PM 34.7008 -79.0769 271° West 351 404 18,500 -976 Descending Jacksonville Center
Sat 08:56:10 PM 34.7000 -79.1906 270° West 346 398 17,500 -950 Descending Jacksonville Center
Sat 08:57:10 PM 34.6992 -79.3094 270° West 346 398 16,600 -900 Descending Jacksonville Center
Sat 08:58:10 PM 34.7006 -79.4256 271° West 346 398 15,700 -900 Descending Jacksonville Center
Sat 08:59:10 PM 34.6992 -79.5367 269° West 346 398 14,800 -900 Descending Jacksonville Center
Sat 09:00:10 PM 34.7019 -79.6425 272° West 336 387 13,900 -850 Descending Jacksonville Center
Sat 09:01:10 PM 34.7006 -79.7461 269° West 324 373 13,100 -850 Descending Jacksonville Center
Sat 09:02:10 PM 34.7033 -79.8572 272° West 324 373 12,200 -685 Descending Jacksonville Center
Sat 09:04:14 PM 34.7028 -80.0744 270° West 311 358 11,000 -377 Descending Atlanta Center
Sat 09:05:21 PM 34.7439 -80.1889 294° West 317 365 11,000  Level Atlanta Center
Sat 09:06:22 PM 34.7783 -80.2833 294° West 316 364 11,000  Level Atlanta Center
Sat 09:07:23 PM 34.8167 -80.3856 295° West 323 372 11,000 -246 Level Atlanta Center
Sat 09:08:24 PM 34.8531 -80.4800 295° West 314 361 10,500 -522 Descending Atlanta Center
Sat 09:09:18 PM 34.8869 -80.5697 295° West 313 360 10,000 -261 Descending Atlanta Center
Sat 09:10:19 PM 34.9475 -80.6508 312° West 312 359 10,000  Level Atlanta Center
Sat 09:11:20 PM 35.0058 -80.7219 315° West 309 356 10,000  Level Atlanta Center
Sat 09:12:15 PM 35.0642 -80.7933 315° West 313 360 10,000 -393 Level Atlanta Center
Sat 09:13:22 PM 35.1544 -80.8178 348° North 292 336 9,200 -1,219 Descending Atlanta Center
Sat 09:14:23 PM 35.2358 -80.8222 357° North 290 334 7,400 -1,759 Descending Atlanta Center
Sat 09:15:18 PM 35.3072 -80.8319 354° North 281 323 5,800 -1,748 Descending Atlanta Center
Sat 09:16:30 PM 35.3894 -80.8672 341° North 265 305 3,700 -1,263 Descending Atlanta Center
Sat 09:17:31 PM 35.3639 -80.9292 243° Southwest 204 235 3,000 -590 Descending Atlanta Center
Sat 09:18:32 PM 35.3183 -80.9486 199° South 163 188 2,500 -569 Descending Atlanta Center
Sat 09:19:27 PM 35.2850 -80.9447 175° South 115 132 1,900 -672 Descending Atlanta Center
Sat 09:20:28 PM 35.2494 -80.9411 175° South 123 142 1,200 -689 Descending Atlanta Center

Login

Don't have an account? Register now (free) for customized features, flight alerts, and more!